Time,TemperatureF,DewpointF,PressureIn,WindDirection,WindDirectionDegrees,WindSpeedMPH,WindSpeedGustMPH,Humidity,HourlyPrecipIn,Conditions,Clouds,dailyrainin,SoftwareType,DateUTC
2013-10-18 00:05:00,41.0,-99.9,-100.00,North,-999,-999.0,-999.0,-999,0.00,,,0.03,,2013-10-18 04:05:00,
2013-10-18 00:14:00,41.0,-99.9,-100.00,North,-999,-999.0,-999.0,-999,0.00,,,0.03,,2013-10-18 04:14:00,
2013-10-18 00:54:00,42.0,-99.9,-100.00,North,-999,-999.0,-999.0,-999,0.00,,,0.03,,2013-10-18 04:54:00,
2013-10-18 01:03:00,42.0,-99.9,-100.00,North,-999,-999.0,-999.0,-999,0.00,,,0.03,,2013-10-18 05:03:00,
2013-10-18 01:13:00,42.0,-99.9,-100.00,North,-999,-999.0,-999.0,-999,0.00,,,0.03,,2013-10-18 05:13:00,
2013-10-18 01:52:00,43.0,-99.9,-100.00,North,-999,-999.0,-999.0,-999,0.04,,,0.07,,2013-10-18 05:52:00,
2013-10-18 02:02:00,43.0,-99.9,-100.00,North,-999,-999.0,-999.0,-999,0.04,,,0.07,,2013-10-18 06:02:00,
2013-10-18 02:12:00,43.0,-99.9,-100.00,North,-999,-999.0,-999.0,-999,0.04,,,0.07,,2013-10-18 06:12:00,
2013-10-18 02:52:00,45.0,-99.9,-100.00,North,-999,-999.0,-999.0,-999,0.04,,,0.11,,2013-10-18 06:52:00,
2013-10-18 03:02:00,45.0,-99.9,-100.00,North,-999,-999.0,-999.0,-999,0.04,,,0.11,,2013-10-18 07:02:00,
2013-10-18 03:12:00,45.0,-99.9,-100.00,North,-999,-999.0,-999.0,-999,0.04,,,0.11,,2013-10-18 07:12:00,
2013-10-18 03:52:00,45.0,-99.9,-100.00,North,-999,-999.0,-999.0,-999,0.06,,,0.17,,2013-10-18 07:52:00,
2013-10-18 04:03:00,45.0,-99.9,-100.00,North,-999,-999.0,-999.0,-999,0.06,,,0.17,,2013-10-18 08:03:00,
2013-10-18 04:12:00,45.0,-99.9,-100.00,North,-999,-999.0,-999.0,-999,0.06,,,0.17,,2013-10-18 08:12:00,
2013-10-18 04:52:00,46.0,-99.9,-100.00,North,-999,-999.0,-999.0,-999,0.26,,,0.43,,2013-10-18 08:52:00,
2013-10-18 05:02:00,46.0,-99.9,-100.00,North,-999,-999.0,-999.0,-999,0.26,,,0.43,,2013-10-18 09:02:00,
2013-10-18 05:12:00,46.0,-99.9,-100.00,North,-999,-999.0,-999.0,-999,0.26,,,0.43,,2013-10-18 09:12:00,
2013-10-18 05:54:00,47.0,-99.9,-100.00,North,-999,-999.0,-999.0,-999,0.04,,,0.47,,2013-10-18 09:54:00,
2013-10-18 06:03:00,47.0,-99.9,-100.00,North,-999,-999.0,-999.0,-999,0.04,,,0.47,,2013-10-18 10:03:00,
2013-10-18 06:12:00,47.0,-99.9,-100.00,North,-999,-999.0,-999.0,-999,0.04,,,0.47,,2013-10-18 10:12:00,
2013-10-18 06:53:00,49.0,-99.9,-100.00,North,-999,-999.0,-999.0,-999,0.00,,,0.47,,2013-10-18 10:53:00,
2013-10-18 07:03:00,49.0,-99.9,-100.00,North,-999,-999.0,-999.0,-999,0.00,,,0.47,,2013-10-18 11:03:00,
2013-10-18 07:12:00,49.0,-99.9,-100.00,North,-999,-999.0,-999.0,-999,0.00,,,0.47,,2013-10-18 11:12:00,
2013-10-18 07:52:00,48.0,-99.9,-100.00,North,-999,-999.0,-999.0,-999,0.04,,,0.48,,2013-10-18 11:52:00,
2013-10-18 08:02:00,48.0,-99.9,-100.00,North,-999,-999.0,-999.0,-999,0.04,,,0.48,,2013-10-18 12:02:00,
2013-10-18 08:12:00,48.0,-99.9,-100.00,North,-999,-999.0,-999.0,-999,0.04,,,0.48,,2013-10-18 12:12:00,
2013-10-18 08:52:00,49.0,-99.9,-100.00,North,-999,-999.0,-999.0,-999,0.01,,,0.49,,2013-10-18 12:52:00,
2013-10-18 09:02:00,49.0,-99.9,-100.00,North,-999,-999.0,-999.0,-999,0.01,,,0.49,,2013-10-18 13:02:00,
2013-10-18 09:11:00,49.0,-99.9,-100.00,North,-999,-999.0,-999.0,-999,0.01,,,0.49,,2013-10-18 13:11:00,
2013-10-18 09:53:00,51.0,-99.9,-100.00,North,-999,-999.0,-999.0,-999,0.00,,,0.49,,2013-10-18 13:53:00,
2013-10-18 10:02:00,51.0,-99.9,-100.00,North,-999,-999.0,-999.0,-999,0.00,,,0.49,,2013-10-18 14:02:00,
2013-10-18 10:12:00,51.0,-99.9,-100.00,North,-999,-999.0,-999.0,-999,0.00,,,0.49,,2013-10-18 14:12:00,
2013-10-18 10:52:00,52.0,-99.9,-100.00,North,-999,-999.0,-999.0,-999,0.00,,,0.49,,2013-10-18 14:52:00,
2013-10-18 11:02:00,52.0,-99.9,-100.00,North,-999,-999.0,-999.0,-999,0.00,,,0.49,,2013-10-18 15:02:00,
2013-10-18 11:12:00,52.0,-99.9,-100.00,North,-999,-999.0,-999.0,-999,0.00,,,0.49,,2013-10-18 15:12:00,
2013-10-18 11:54:00,55.0,-99.9,-100.00,North,-999,-999.0,-999.0,-999,0.00,,,0.49,,2013-10-18 15:54:00,
2013-10-18 12:04:00,55.0,-99.9,-100.00,North,-999,-999.0,-999.0,-999,0.00,,,0.49,,2013-10-18 16:04:00,
2013-10-18 12:13:00,55.0,-99.9,-100.00,North,-999,-999.0,-999.0,-999,0.00,,,0.49,,2013-10-18 16:13:00,
2013-10-18 12:53:00,53.0,-99.9,-100.00,North,-999,-999.0,-999.0,-999,0.00,,,0.49,,2013-10-18 16:53:00,
2013-10-18 13:03:00,53.0,-99.9,-100.00,North,-999,-999.0,-999.0,-999,0.00,,,0.49,,2013-10-18 17:03:00,
2013-10-18 13:12:00,53.0,-99.9,-100.00,North,-999,-999.0,-999.0,-999,0.00,,,0.49,,2013-10-18 17:12:00,
2013-10-18 13:52:00,56.0,-99.9,-100.00,North,-999,-999.0,-999.0,-999,0.00,,,0.49,,2013-10-18 17:52:00,
2013-10-18 14:02:00,56.0,-99.9,-100.00,North,-999,-999.0,-999.0,-999,0.00,,,0.49,,2013-10-18 18:02:00,
2013-10-18 14:12:00,56.0,-99.9,-100.00,North,-999,-999.0,-999.0,-999,0.00,,,0.49,,2013-10-18 18:12:00,
2013-10-18 14:53:00,57.0,-99.9,-100.00,North,-999,-999.0,-999.0,-999,0.00,,,0.49,,2013-10-18 18:53:00,
2013-10-18 15:02:00,57.0,-99.9,-100.00,North,-999,-999.0,-999.0,-999,0.00,,,0.49,,2013-10-18 19:02:00,
2013-10-18 15:12:00,57.0,-99.9,-100.00,North,-999,-999.0,-999.0,-999,0.00,,,0.49,,2013-10-18 19:12:00,
2013-10-18 15:52:00,55.0,-99.9,-100.00,North,-999,-999.0,-999.0,-999,0.00,,,0.49,,2013-10-18 19:52:00,
2013-10-18 16:02:00,55.0,-99.9,-100.00,North,-999,-999.0,-999.0,-999,0.00,,,0.49,,2013-10-18 20:02:00,
2013-10-18 16:11:00,55.0,-99.9,-100.00,North,-999,-999.0,-999.0,-999,0.00,,,0.49,,2013-10-18 20:11:00,
2013-10-18 16:52:00,54.0,-99.9,-100.00,North,-999,-999.0,-999.0,-999,0.00,,,0.49,,2013-10-18 20:52:00,
2013-10-18 17:03:00,54.0,-99.9,-100.00,North,-999,-999.0,-999.0,-999,0.00,,,0.49,,2013-10-18 21:03:00,
2013-10-18 17:12:00,54.0,-99.9,-100.00,North,-999,-999.0,-999.0,-999,0.00,,,0.49,,2013-10-18 21:12:00,
2013-10-18 17:54:00,54.0,-99.9,-100.00,North,-999,-999.0,-999.0,-999,0.00,,,0.49,,2013-10-18 21:54:00,
2013-10-18 18:04:00,54.0,-99.9,-100.00,North,-999,-999.0,-999.0,-999,0.00,,,0.49,,2013-10-18 22:04:00,
2013-10-18 18:14:00,54.0,-99.9,-100.00,North,-999,-999.0,-999.0,-999,0.00,,,0.49,,2013-10-18 22:14:00,
2013-10-18 18:54:00,52.0,-99.9,-100.00,North,-999,-999.0,-999.0,-999,0.00,,,0.49,,2013-10-18 22:54:00,
2013-10-18 19:03:00,52.0,-99.9,-100.00,North,-999,-999.0,-999.0,-999,0.00,,,0.49,,2013-10-18 23:03:00,
2013-10-18 19:13:00,52.0,-99.9,-100.00,North,-999,-999.0,-999.0,-999,0.00,,,0.49,,2013-10-18 23:13:00,
2013-10-18 19:53:00,48.0,-99.9,-100.00,North,-999,-999.0,-999.0,-999,0.00,,,0.49,,2013-10-18 23:53:00,
2013-10-18 20:02:00,48.0,-99.9,-100.00,North,-999,-999.0,-999.0,-999,0.00,,,0.49,,2013-10-19 00:02:00,
2013-10-18 20:12:00,48.0,-99.9,-100.00,North,-999,-999.0,-999.0,-999,0.00,,,0.49,,2013-10-19 00:12:00,
2013-10-18 20:52:00,48.0,-99.9,-100.00,North,-999,-999.0,-999.0,-999,0.00,,,0.49,,2013-10-19 00:52:00,
2013-10-18 21:02:00,48.0,-99.9,-100.00,North,-999,-999.0,-999.0,-999,0.00,,,0.49,,2013-10-19 01:02:00,
2013-10-18 21:12:00,48.0,-99.9,-100.00,North,-999,-999.0,-999.0,-999,0.00,,,0.49,,2013-10-19 01:12:00,
2013-10-18 21:53:00,46.0,-99.9,-100.00,North,-999,-999.0,-999.0,-999,0.00,,,0.49,,2013-10-19 01:53:00,
2013-10-18 22:02:00,46.0,-99.9,-100.00,North,-999,-999.0,-999.0,-999,0.00,,,0.49,,2013-10-19 02:02:00,
2013-10-18 22:12:00,46.0,-99.9,-100.00,North,-999,-999.0,-999.0,-999,0.00,,,0.49,,2013-10-19 02:12:00,
2013-10-18 22:52:00,50.0,-99.9,-100.00,North,-999,-999.0,-999.0,-999,0.00,,,0.49,,2013-10-19 02:52:00,
2013-10-18 23:03:00,50.0,-99.9,-100.00,North,-999,-999.0,-999.0,-999,0.00,,,0.49,,2013-10-19 03:03:00,
2013-10-18 23:12:00,50.0,-99.9,-100.00,North,-999,-999.0,-999.0,-999,0.00,,,0.49,,2013-10-19 03:12:00,
2013-10-18 23:55:00,49.0,-99.9,-100.00,North,-999,-999.0,-999.0,-999,0.00,,,0.49,,2013-10-19 03:55:00,